Архив погоды в Донецке за Апрель, 2018 год

icon
Год:Все20022003200420052006200720082009201020112012201320142015201620172018
Месяц:ЯнварьФевральМартАпрельМайИюньИюльДекабрь
Дата Облачность Температура (д/н), °C Давление, мм Влажность, % Ветер, м/с
01.04.2018 Облачность ясно +16 / +6 735 34 Ю-В, 7
02.04.2018 Облачность дождь +10 / +5 728 79 Ю, 2
03.04.2018 Облачность дождь +3 / +0 740 85 С-З, 4
04.04.2018 Облачность пасмурно +12 / +5 743 44 З, 4
05.04.2018 Облачность ясно +15 / +3 741 39 Ю, 3
06.04.2018 Облачность ясно +17 / +5 741 34 Ю-В, 4
07.04.2018 Облачность ясно +19 / +6 743 31 С-В, 3
08.04.2018 Облачность ясно +18 / +5 745 29 С-В, 4
09.04.2018 Облачность ясно +20 / +6 743 21 В, 8
10.04.2018 Облачность ясно +20 / +7 738 33 Ю-В, 5
11.04.2018 Облачность ясно +25 / +11 736 31 Ю-З, 3
12.04.2018 Облачность ясно +20 / +8 740 41 В, 4
13.04.2018 Облачность ясно +17 / +4 741 35 Ю-В, 2
14.04.2018 Облачность ясно +16 / +3 745 21 С-В, 3
15.04.2018 Облачность ясно +15 / +4 746 22 В, 2
16.04.2018 Облачность пасмурно +16 / +9 743 33 Ю-З, 5
17.04.2018 Облачность пасмурно +20 / +10 743 37 З, 2
18.04.2018 Облачность пасмурно +19 / +8 740 30 З, 4
19.04.2018 Облачность дождь +9 / +8 731 77 З, 6
20.04.2018 Облачность пасмурно +11 / +6 733 69 С, 4
21.04.2018 Облачность ясно +18 / +11 736 30 З, 3
22.04.2018 Облачность ясно +18 / +6 731 21 С-З, 5
23.04.2018 Облачность пасмурно +14 / +2 736 33 З, 4
24.04.2018 Облачность пасмурно +18 / +10 738 28 С-З, 4
25.04.2018 Облачность пасмурно +22 / +11 737 41 З, 4
26.04.2018 Облачность ясно +26 / +11 736 29 Ю, 6
27.04.2018 Облачность пасмурно +26 / +9 734 28 Ю, 4
28.04.2018 Облачность ясно +19 / +11 742 33 С-З, 2
29.04.2018 Облачность ясно +23 / +12 743 31 В, 4
30.04.2018 Облачность ясно +24 / +11 741 25 В, 2
icon
Облачность:дождь дождь
Темп. днем:25..27 °C
Темп. ночью:17..19 °C
Давление:732 мм
Влажность:52 %
Ветер:ЮЗ, 4 м/с
icon
USDusd26,22(+0,01472)
RUBrub0,42(-0,00098)
EUReur30,70(-0,01683)
icon
Ср. 18 Июль 2018
icon
Логин:
Код: ---
 
Реклама
icon